sensor_id;sensor_type;location;lat;lon;timestamp;P1;durP1;ratioP1;P2;durP2;ratioP2
65831;SDS011;52593;42.648;23.332;2023-02-10T00:01:05;28.23;;;10.00;;
65831;SDS011;52593;42.648;23.332;2023-02-10T00:03:32;28.48;;;9.98;;
65831;SDS011;52593;42.648;23.332;2023-02-10T00:05:58;31.48;;;10.15;;
65831;SDS011;52593;42.648;23.332;2023-02-10T00:08:24;31.77;;;9.87;;
65831;SDS011;52593;42.648;23.332;2023-02-10T00:10:49;26.75;;;9.48;;
65831;SDS011;52593;42.648;23.332;2023-02-10T00:13:15;27.77;;;10.27;;
65831;SDS011;52593;42.648;23.332;2023-02-10T00:15:40;29.33;;;10.53;;
65831;SDS011;52593;42.648;23.332;2023-02-10T00:18:06;27.92;;;10.77;;
65831;SDS011;52593;42.648;23.332;2023-02-10T00:20:31;29.17;;;11.07;;
65831;SDS011;52593;42.648;23.332;2023-02-10T00:22:56;27.40;;;10.53;;
65831;SDS011;52593;42.648;23.332;2023-02-10T00:25:22;33.53;;;11.07;;
65831;SDS011;52593;42.648;23.332;2023-02-10T00:27:47;29.57;;;10.43;;
65831;SDS011;52593;42.648;23.332;2023-02-10T00:30:13;27.20;;;10.52;;
65831;SDS011;52593;42.648;23.332;2023-02-10T00:32:38;27.70;;;10.20;;
65831;SDS011;52593;42.648;23.332;2023-02-10T00:35:05;32.25;;;10.82;;
65831;SDS011;52593;42.648;23.332;2023-02-10T00:37:33;33.42;;;11.32;;
65831;SDS011;52593;42.648;23.332;2023-02-10T00:39:59;29.90;;;10.27;;
65831;SDS011;52593;42.648;23.332;2023-02-10T00:42:24;28.43;;;9.97;;
65831;SDS011;52593;42.648;23.332;2023-02-10T00:44:50;30.07;;;10.33;;
65831;SDS011;52593;42.648;23.332;2023-02-10T00:47:15;31.73;;;8.95;;
65831;SDS011;52593;42.648;23.332;2023-02-10T00:49:41;31.43;;;9.97;;
65831;SDS011;52593;42.648;23.332;2023-02-10T00:52:06;25.63;;;9.70;;
65831;SDS011;52593;42.648;23.332;2023-02-10T00:54:32;28.58;;;9.50;;
65831;SDS011;52593;42.648;23.332;2023-02-10T00:56:57;30.73;;;9.73;;
65831;SDS011;52593;42.648;23.332;2023-02-10T00:59:22;26.93;;;8.00;;
65831;SDS011;52593;42.648;23.332;2023-02-10T01:01:48;24.30;;;8.10;;
65831;SDS011;52593;42.648;23.332;2023-02-10T01:04:13;25.97;;;8.30;;
65831;SDS011;52593;42.648;23.332;2023-02-10T01:06:39;22.48;;;7.70;;
65831;SDS011;52593;42.648;23.332;2023-02-10T01:09:04;28.50;;;8.00;;
65831;SDS011;52593;42.648;23.332;2023-02-10T01:11:30;16.03;;;6.13;;
65831;SDS011;52593;42.648;23.332;2023-02-10T01:13:55;20.42;;;6.88;;
65831;SDS011;52593;42.648;23.332;2023-02-10T01:16:21;24.07;;;6.77;;
65831;SDS011;52593;42.648;23.332;2023-02-10T01:18:46;15.37;;;6.13;;
65831;SDS011;52593;42.648;23.332;2023-02-10T01:21:14;18.17;;;6.63;;
65831;SDS011;52593;42.648;23.332;2023-02-10T01:23:41;22.13;;;5.90;;
65831;SDS011;52593;42.648;23.332;2023-02-10T01:26:08;20.45;;;6.57;;
65831;SDS011;52593;42.648;23.332;2023-02-10T01:28:35;17.10;;;6.35;;
65831;SDS011;52593;42.648;23.332;2023-02-10T01:31:05;22.07;;;7.00;;
65831;SDS011;52593;42.648;23.332;2023-02-10T01:33:31;18.38;;;6.90;;
65831;SDS011;52593;42.648;23.332;2023-02-10T01:35:57;20.40;;;6.93;;
65831;SDS011;52593;42.648;23.332;2023-02-10T01:38:22;22.27;;;7.27;;
65831;SDS011;52593;42.648;23.332;2023-02-10T01:40:48;16.50;;;6.20;;
65831;SDS011;52593;42.648;23.332;2023-02-10T01:43:14;24.15;;;7.53;;
65831;SDS011;52593;42.648;23.332;2023-02-10T01:45:41;21.87;;;7.30;;
65831;SDS011;52593;42.648;23.332;2023-02-10T01:48:07;18.55;;;6.70;;
65831;SDS011;52593;42.648;23.332;2023-02-10T01:50:38;21.48;;;7.07;;
65831;SDS011;52593;42.648;23.332;2023-02-10T01:53:09;20.95;;;6.68;;
65831;SDS011;52593;42.648;23.332;2023-02-10T01:55:35;20.33;;;6.88;;
65831;SDS011;52593;42.648;23.332;2023-02-10T01:58:06;23.60;;;7.00;;
65831;SDS011;52593;42.648;23.332;2023-02-10T02:00:36;24.30;;;7.75;;
65831;SDS011;52593;42.648;23.332;2023-02-10T02:03:01;18.45;;;6.65;;
65831;SDS011;52593;42.648;23.332;2023-02-10T02:07:55;18.87;;;6.67;;
65831;SDS011;52593;42.648;23.332;2023-02-10T02:18:55;17.98;;;5.97;;
65831;SDS011;52593;42.648;23.332;2023-02-10T02:27:04;22.58;;;8.68;;
65831;SDS011;52593;42.648;23.332;2023-02-10T02:35:59;21.85;;;8.48;;
65831;SDS011;52593;42.648;23.332;2023-02-10T02:38:42;33.28;;;9.43;;
65831;SDS011;52593;42.648;23.332;2023-02-10T02:41:08;30.13;;;10.30;;
65831;SDS011;52593;42.648;23.332;2023-02-10T02:43:35;32.50;;;10.33;;
65831;SDS011;52593;42.648;23.332;2023-02-10T02:46:06;31.80;;;10.43;;
65831;SDS011;52593;42.648;23.332;2023-02-10T02:51:28;32.00;;;10.32;;
65831;SDS011;52593;42.648;23.332;2023-02-10T02:56:47;30.07;;;10.30;;
65831;SDS011;52593;42.648;23.332;2023-02-10T03:01:45;27.77;;;10.43;;
65831;SDS011;52593;42.648;23.332;2023-02-10T03:04:15;17.80;;;7.07;;
65831;SDS011;52593;42.648;23.332;2023-02-10T03:06:41;33.17;;;10.80;;
65831;SDS011;52593;42.648;23.332;2023-02-10T03:09:07;40.55;;;12.18;;
65831;SDS011;52593;42.648;23.332;2023-02-10T03:11:33;30.07;;;11.50;;
65831;SDS011;52593;42.648;23.332;2023-02-10T03:13:58;33.57;;;12.17;;
65831;SDS011;52593;42.648;23.332;2023-02-10T03:16:24;28.20;;;11.17;;
65831;SDS011;52593;42.648;23.332;2023-02-10T03:18:49;36.88;;;10.75;;
65831;SDS011;52593;42.648;23.332;2023-02-10T03:21:14;30.35;;;11.02;;
65831;SDS011;52593;42.648;23.332;2023-02-10T03:23:40;31.07;;;11.73;;
65831;SDS011;52593;42.648;23.332;2023-02-10T03:26:05;36.97;;;10.37;;
65831;SDS011;52593;42.648;23.332;2023-02-10T03:28:30;33.10;;;10.73;;
65831;SDS011;52593;42.648;23.332;2023-02-10T03:30:56;30.73;;;11.17;;
65831;SDS011;52593;42.648;23.332;2023-02-10T03:33:21;32.17;;;12.27;;
65831;SDS011;52593;42.648;23.332;2023-02-10T03:35:47;31.30;;;12.63;;
65831;SDS011;52593;42.648;23.332;2023-02-10T03:38:14;38.83;;;12.25;;
65831;SDS011;52593;42.648;23.332;2023-02-10T03:40:40;31.48;;;11.65;;
65831;SDS011;52593;42.648;23.332;2023-02-10T03:43:06;35.20;;;13.50;;
65831;SDS011;52593;42.648;23.332;2023-02-10T03:45:31;39.00;;;13.07;;
65831;SDS011;52593;42.648;23.332;2023-02-10T03:47:57;32.60;;;10.55;;
65831;SDS011;52593;42.648;23.332;2023-02-10T03:50:24;37.75;;;11.75;;
65831;SDS011;52593;42.648;23.332;2023-02-10T03:52:50;31.95;;;10.23;;
65831;SDS011;52593;42.648;23.332;2023-02-10T03:55:16;35.17;;;11.10;;
65831;SDS011;52593;42.648;23.332;2023-02-10T03:57:42;32.83;;;11.80;;
65831;SDS011;52593;42.648;23.332;2023-02-10T04:00:08;37.22;;;12.13;;
65831;SDS011;52593;42.648;23.332;2023-02-10T04:02:34;35.57;;;12.43;;
65831;SDS011;52593;42.648;23.332;2023-02-10T04:05:00;35.72;;;12.95;;
65831;SDS011;52593;42.648;23.332;2023-02-10T04:07:25;34.05;;;11.25;;
65831;SDS011;52593;42.648;23.332;2023-02-10T04:09:51;37.30;;;11.93;;
65831;SDS011;52593;42.648;23.332;2023-02-10T04:12:16;34.93;;;12.17;;
65831;SDS011;52593;42.648;23.332;2023-02-10T04:14:42;33.40;;;12.07;;
65831;SDS011;52593;42.648;23.332;2023-02-10T04:17:07;37.60;;;12.02;;
65831;SDS011;52593;42.648;23.332;2023-02-10T04:19:32;38.20;;;12.07;;
65831;SDS011;52593;42.648;23.332;2023-02-10T04:21:58;31.90;;;10.77;;
65831;SDS011;52593;42.648;23.332;2023-02-10T04:24:23;34.10;;;12.30;;
65831;SDS011;52593;42.648;23.332;2023-02-10T04:26:48;31.47;;;10.10;;
65831;SDS011;52593;42.648;23.332;2023-02-10T04:29:14;35.42;;;12.05;;
65831;SDS011;52593;42.648;23.332;2023-02-10T04:31:39;27.87;;;11.17;;
65831;SDS011;52593;42.648;23.332;2023-02-10T04:34:05;32.90;;;10.93;;
65831;SDS011;52593;42.648;23.332;2023-02-10T04:36:30;34.50;;;11.77;;
65831;SDS011;52593;42.648;23.332;2023-02-10T04:38:55;36.93;;;12.73;;
65831;SDS011;52593;42.648;23.332;2023-02-10T04:41:21;30.45;;;10.70;;
65831;SDS011;52593;42.648;23.332;2023-02-10T04:43:46;33.30;;;11.65;;
65831;SDS011;52593;42.648;23.332;2023-02-10T04:46:12;28.37;;;11.63;;
65831;SDS011;52593;42.648;23.332;2023-02-10T04:48:37;25.90;;;10.80;;
65831;SDS011;52593;42.648;23.332;2023-02-10T04:51:06;34.70;;;11.47;;
65831;SDS011;52593;42.648;23.332;2023-02-10T04:53:33;29.65;;;10.93;;
65831;SDS011;52593;42.648;23.332;2023-02-10T04:55:58;30.43;;;11.73;;
65831;SDS011;52593;42.648;23.332;2023-02-10T04:58:24;35.17;;;12.47;;
65831;SDS011;52593;42.648;23.332;2023-02-10T05:00:49;31.25;;;11.32;;
65831;SDS011;52593;42.648;23.332;2023-02-10T05:03:15;33.63;;;11.90;;
65831;SDS011;52593;42.648;23.332;2023-02-10T05:05:40;39.57;;;13.90;;
65831;SDS011;52593;42.648;23.332;2023-02-10T05:08:05;42.23;;;12.67;;
65831;SDS011;52593;42.648;23.332;2023-02-10T05:10:31;36.17;;;12.32;;
65831;SDS011;52593;42.648;23.332;2023-02-10T05:12:57;39.77;;;13.10;;
65831;SDS011;52593;42.648;23.332;2023-02-10T05:15:22;36.73;;;12.53;;
65831;SDS011;52593;42.648;23.332;2023-02-10T05:17:47;35.10;;;12.47;;
65831;SDS011;52593;42.648;23.332;2023-02-10T05:20:13;40.67;;;12.30;;
65831;SDS011;52593;42.648;23.332;2023-02-10T05:22:38;36.95;;;13.52;;
65831;SDS011;52593;42.648;23.332;2023-02-10T05:25:05;38.58;;;13.57;;
65831;SDS011;52593;42.648;23.332;2023-02-10T05:27:30;37.50;;;13.77;;
65831;SDS011;52593;42.648;23.332;2023-02-10T05:29:56;35.35;;;12.52;;
65831;SDS011;52593;42.648;23.332;2023-02-10T05:32:21;44.33;;;15.38;;
65831;SDS011;52593;42.648;23.332;2023-02-10T05:34:47;38.83;;;12.90;;
65831;SDS011;52593;42.648;23.332;2023-02-10T05:37:12;37.77;;;14.23;;
65831;SDS011;52593;42.648;23.332;2023-02-10T05:39:37;39.40;;;14.50;;
65831;SDS011;52593;42.648;23.332;2023-02-10T05:42:03;37.50;;;12.50;;
65831;SDS011;52593;42.648;23.332;2023-02-10T05:44:29;34.37;;;14.40;;
65831;SDS011;52593;42.648;23.332;2023-02-10T05:46:55;38.45;;;12.95;;
65831;SDS011;52593;42.648;23.332;2023-02-10T05:49:20;38.20;;;13.53;;
65831;SDS011;52593;42.648;23.332;2023-02-10T05:51:46;43.33;;;13.55;;
65831;SDS011;52593;42.648;23.332;2023-02-10T05:54:12;35.87;;;14.27;;
65831;SDS011;52593;42.648;23.332;2023-02-10T05:56:38;38.53;;;13.13;;
65831;SDS011;52593;42.648;23.332;2023-02-10T05:59:04;45.27;;;15.30;;
65831;SDS011;52593;42.648;23.332;2023-02-10T06:01:29;46.90;;;15.43;;
65831;SDS011;52593;42.648;23.332;2023-02-10T06:03:55;42.13;;;14.57;;
65831;SDS011;52593;42.648;23.332;2023-02-10T06:06:20;36.53;;;14.03;;
65831;SDS011;52593;42.648;23.332;2023-02-10T06:08:46;43.20;;;14.33;;
65831;SDS011;52593;42.648;23.332;2023-02-10T06:11:12;40.75;;;14.30;;
65831;SDS011;52593;42.648;23.332;2023-02-10T06:13:37;40.57;;;14.80;;
65831;SDS011;52593;42.648;23.332;2023-02-10T06:16:03;44.23;;;14.53;;
65831;SDS011;52593;42.648;23.332;2023-02-10T06:18:30;44.95;;;14.90;;
65831;SDS011;52593;42.648;23.332;2023-02-10T06:20:56;39.03;;;14.90;;
65831;SDS011;52593;42.648;23.332;2023-02-10T06:23:22;38.00;;;13.70;;
65831;SDS011;52593;42.648;23.332;2023-02-10T06:25:48;45.38;;;16.30;;
65831;SDS011;52593;42.648;23.332;2023-02-10T06:28:13;50.93;;;16.23;;
65831;SDS011;52593;42.648;23.332;2023-02-10T06:30:40;44.63;;;16.08;;
65831;SDS011;52593;42.648;23.332;2023-02-10T06:33:06;40.85;;;14.77;;
65831;SDS011;52593;42.648;23.332;2023-02-10T06:35:31;35.42;;;13.77;;
65831;SDS011;52593;42.648;23.332;2023-02-10T06:37:57;35.83;;;13.67;;
65831;SDS011;52593;42.648;23.332;2023-02-10T06:40:22;23.97;;;10.03;;
65831;SDS011;52593;42.648;23.332;2023-02-10T06:42:48;32.35;;;11.85;;
65831;SDS011;52593;42.648;23.332;2023-02-10T06:45:13;36.47;;;13.48;;
65831;SDS011;52593;42.648;23.332;2023-02-10T06:47:38;36.73;;;13.67;;
65831;SDS011;52593;42.648;23.332;2023-02-10T06:50:04;36.67;;;13.60;;
65831;SDS011;52593;42.648;23.332;2023-02-10T06:52:30;36.50;;;12.68;;
65831;SDS011;52593;42.648;23.332;2023-02-10T06:54:56;40.63;;;14.48;;
65831;SDS011;52593;42.648;23.332;2023-02-10T06:57:22;35.33;;;12.70;;
65831;SDS011;52593;42.648;23.332;2023-02-10T06:59:47;38.37;;;13.77;;
65831;SDS011;52593;42.648;23.332;2023-02-10T07:02:13;34.50;;;12.67;;
65831;SDS011;52593;42.648;23.332;2023-02-10T07:04:38;30.95;;;12.23;;
65831;SDS011;52593;42.648;23.332;2023-02-10T07:07:04;32.47;;;13.03;;
65831;SDS011;52593;42.648;23.332;2023-02-10T07:09:30;30.55;;;13.02;;
65831;SDS011;52593;42.648;23.332;2023-02-10T07:11:57;37.45;;;14.27;;
65831;SDS011;52593;42.648;23.332;2023-02-10T07:14:23;32.47;;;13.53;;
65831;SDS011;52593;42.648;23.332;2023-02-10T07:16:48;34.97;;;13.45;;
65831;SDS011;52593;42.648;23.332;2023-02-10T07:19:14;32.53;;;12.43;;
65831;SDS011;52593;42.648;23.332;2023-02-10T07:21:39;36.50;;;12.50;;
65831;SDS011;52593;42.648;23.332;2023-02-10T07:24:05;40.00;;;13.63;;
65831;SDS011;52593;42.648;23.332;2023-02-10T07:26:30;40.97;;;14.50;;
65831;SDS011;52593;42.648;23.332;2023-02-10T07:28:56;37.72;;;13.10;;
65831;SDS011;52593;42.648;23.332;2023-02-10T07:31:22;38.30;;;13.52;;
65831;SDS011;52593;42.648;23.332;2023-02-10T07:33:47;39.10;;;13.17;;
65831;SDS011;52593;42.648;23.332;2023-02-10T07:36:12;30.47;;;12.17;;
65831;SDS011;52593;42.648;23.332;2023-02-10T07:38:38;32.83;;;12.23;;
65831;SDS011;52593;42.648;23.332;2023-02-10T07:41:04;39.75;;;11.75;;
65831;SDS011;52593;42.648;23.332;2023-02-10T07:43:30;35.23;;;11.30;;
65831;SDS011;52593;42.648;23.332;2023-02-10T07:45:56;37.38;;;12.75;;
65831;SDS011;52593;42.648;23.332;2023-02-10T07:48:21;19.00;;;7.83;;
65831;SDS011;52593;42.648;23.332;2023-02-10T07:50:47;32.17;;;11.45;;
65831;SDS011;52593;42.648;23.332;2023-02-10T07:53:13;36.47;;;13.90;;
65831;SDS011;52593;42.648;23.332;2023-02-10T07:55:39;25.63;;;9.63;;
65831;SDS011;52593;42.648;23.332;2023-02-10T07:58:05;32.57;;;12.93;;
65831;SDS011;52593;42.648;23.332;2023-02-10T08:00:31;41.97;;;14.77;;
65831;SDS011;52593;42.648;23.332;2023-02-10T08:02:57;34.58;;;12.95;;
65831;SDS011;52593;42.648;23.332;2023-02-10T08:05:22;23.93;;;9.47;;
65831;SDS011;52593;42.648;23.332;2023-02-10T08:07:48;36.07;;;12.30;;
65831;SDS011;52593;42.648;23.332;2023-02-10T08:10:13;35.38;;;12.27;;
65831;SDS011;52593;42.648;23.332;2023-02-10T08:12:39;37.47;;;12.50;;
65831;SDS011;52593;42.648;23.332;2023-02-10T08:15:05;38.63;;;14.27;;
65831;SDS011;52593;42.648;23.332;2023-02-10T08:17:31;29.35;;;12.50;;
65831;SDS011;52593;42.648;23.332;2023-02-10T08:19:57;34.73;;;13.90;;
65831;SDS011;52593;42.648;23.332;2023-02-10T08:22:22;35.60;;;14.57;;
65831;SDS011;52593;42.648;23.332;2023-02-10T08:24:48;35.38;;;13.15;;
65831;SDS011;52593;42.648;23.332;2023-02-10T08:27:13;41.67;;;12.87;;
65831;SDS011;52593;42.648;23.332;2023-02-10T08:29:38;37.50;;;14.83;;
65831;SDS011;52593;42.648;23.332;2023-02-10T08:32:04;41.73;;;14.40;;
65831;SDS011;52593;42.648;23.332;2023-02-10T08:34:29;34.47;;;12.30;;
65831;SDS011;52593;42.648;23.332;2023-02-10T08:36:54;39.23;;;13.07;;
65831;SDS011;52593;42.648;23.332;2023-02-10T08:39:20;33.83;;;13.30;;
65831;SDS011;52593;42.648;23.332;2023-02-10T08:41:46;34.78;;;12.40;;
65831;SDS011;52593;42.648;23.332;2023-02-10T08:44:12;55.60;;;13.93;;
65831;SDS011;52593;42.648;23.332;2023-02-10T08:46:38;34.88;;;12.52;;
65831;SDS011;52593;42.648;23.332;2023-02-10T08:49:03;34.23;;;12.50;;
65831;SDS011;52593;42.648;23.332;2023-02-10T08:51:29;31.90;;;11.40;;
65831;SDS011;52593;42.648;23.332;2023-02-10T08:53:56;31.65;;;11.50;;
65831;SDS011;52593;42.648;23.332;2023-02-10T08:56:22;34.30;;;12.97;;
65831;SDS011;52593;42.648;23.332;2023-02-10T08:58:48;38.17;;;13.13;;
65831;SDS011;52593;42.648;23.332;2023-02-10T09:01:16;30.70;;;11.65;;
65831;SDS011;52593;42.648;23.332;2023-02-10T09:03:44;28.33;;;10.00;;
65831;SDS011;52593;42.648;23.332;2023-02-10T09:06:17;31.77;;;11.23;;
65831;SDS011;52593;42.648;23.332;2023-02-10T09:08:50;28.77;;;10.13;;
65831;SDS011;52593;42.648;23.332;2023-02-10T09:11:17;25.17;;;10.00;;
65831;SDS011;52593;42.648;23.332;2023-02-10T09:13:44;28.03;;;12.10;;
65831;SDS011;52593;42.648;23.332;2023-02-10T09:16:09;30.25;;;11.10;;
65831;SDS011;52593;42.648;23.332;2023-02-10T09:18:35;29.00;;;11.00;;
65831;SDS011;52593;42.648;23.332;2023-02-10T09:21:00;31.40;;;11.67;;
65831;SDS011;52593;42.648;23.332;2023-02-10T09:23:27;31.10;;;11.82;;
65831;SDS011;52593;42.648;23.332;2023-02-10T09:25:53;30.60;;;12.48;;
65831;SDS011;52593;42.648;23.332;2023-02-10T09:28:19;39.30;;;11.32;;
65831;SDS011;52593;42.648;23.332;2023-02-10T09:30:46;34.17;;;11.83;;
65831;SDS011;52593;42.648;23.332;2023-02-10T09:33:11;31.80;;;12.50;;
65831;SDS011;52593;42.648;23.332;2023-02-10T09:35:37;31.13;;;12.43;;
65831;SDS011;52593;42.648;23.332;2023-02-10T09:38:02;35.33;;;10.80;;
65831;SDS011;52593;42.648;23.332;2023-02-10T09:40:30;26.33;;;8.13;;
65831;SDS011;52593;42.648;23.332;2023-02-10T09:43:02;29.45;;;10.45;;
65831;SDS011;52593;42.648;23.332;2023-02-10T09:45:33;27.33;;;9.93;;
65831;SDS011;52593;42.648;23.332;2023-02-10T09:53:20;26.33;;;11.13;;
65831;SDS011;52593;42.648;23.332;2023-02-10T09:55:49;28.95;;;10.00;;
65831;SDS011;52593;42.648;23.332;2023-02-10T09:58:30;21.98;;;8.57;;
65831;SDS011;52593;42.648;23.332;2023-02-10T10:04:01;21.80;;;7.90;;
65831;SDS011;52593;42.648;23.332;2023-02-10T10:06:33;21.50;;;8.23;;
65831;SDS011;52593;42.648;23.332;2023-02-10T10:14:00;23.10;;;8.55;;
65831;SDS011;52593;42.648;23.332;2023-02-10T10:25:43;30.15;;;11.82;;
65831;SDS011;52593;42.648;23.332;2023-02-10T10:30:58;34.78;;;13.75;;
65831;SDS011;52593;42.648;23.332;2023-02-10T10:36:17;32.70;;;12.32;;
65831;SDS011;52593;42.648;23.332;2023-02-10T10:38:51;31.58;;;12.80;;
65831;SDS011;52593;42.648;23.332;2023-02-10T10:41:18;27.43;;;12.53;;
65831;SDS011;52593;42.648;23.332;2023-02-10T10:43:49;29.08;;;12.15;;
65831;SDS011;52593;42.648;23.332;2023-02-10T10:48:48;36.28;;;15.15;;
65831;SDS011;52593;42.648;23.332;2023-02-10T10:51:14;37.57;;;15.43;;
65831;SDS011;52593;42.648;23.332;2023-02-10T10:53:48;36.15;;;15.23;;
65831;SDS011;52593;42.648;23.332;2023-02-10T10:59:18;36.95;;;14.43;;
65831;SDS011;52593;42.648;23.332;2023-02-10T11:01:46;37.70;;;15.20;;
65831;SDS011;52593;42.648;23.332;2023-02-10T11:04:14;38.43;;;14.57;;
65831;SDS011;52593;42.648;23.332;2023-02-10T11:06:42;40.28;;;14.95;;
65831;SDS011;52593;42.648;23.332;2023-02-10T11:09:20;36.17;;;14.75;;
65831;SDS011;52593;42.648;23.332;2023-02-10T11:11:47;39.10;;;15.40;;
65831;SDS011;52593;42.648;23.332;2023-02-10T11:14:15;43.10;;;17.50;;
65831;SDS011;52593;42.648;23.332;2023-02-10T11:16:53;39.80;;;16.03;;
65831;SDS011;52593;42.648;23.332;2023-02-10T11:19:27;37.10;;;13.60;;
65831;SDS011;52593;42.648;23.332;2023-02-10T11:21:54;32.70;;;14.52;;
65831;SDS011;52593;42.648;23.332;2023-02-10T11:29:49;32.00;;;14.18;;
65831;SDS011;52593;42.648;23.332;2023-02-10T11:32:20;26.95;;;10.82;;
65831;SDS011;52593;42.648;23.332;2023-02-10T11:34:48;34.40;;;13.15;;
65831;SDS011;52593;42.648;23.332;2023-02-10T11:37:29;34.47;;;13.18;;
65831;SDS011;52593;42.648;23.332;2023-02-10T11:39:57;36.70;;;12.50;;
65831;SDS011;52593;42.648;23.332;2023-02-10T11:42:28;34.13;;;14.73;;
65831;SDS011;52593;42.648;23.332;2023-02-10T11:45:00;34.38;;;14.10;;
65831;SDS011;52593;42.648;23.332;2023-02-10T11:47:45;41.50;;;15.48;;
65831;SDS011;52593;42.648;23.332;2023-02-10T11:50:21;37.50;;;16.33;;
65831;SDS011;52593;42.648;23.332;2023-02-10T11:52:48;32.47;;;13.25;;
65831;SDS011;52593;42.648;23.332;2023-02-10T11:55:14;33.93;;;14.20;;
65831;SDS011;52593;42.648;23.332;2023-02-10T12:00:52;31.70;;;13.45;;
65831;SDS011;52593;42.648;23.332;2023-02-10T12:03:41;39.80;;;15.38;;
65831;SDS011;52593;42.648;23.332;2023-02-10T12:06:23;37.17;;;15.97;;
65831;SDS011;52593;42.648;23.332;2023-02-10T12:25:03;33.38;;;13.52;;
65831;SDS011;52593;42.648;23.332;2023-02-10T12:46:24;38.30;;;14.88;;
65831;SDS011;52593;42.648;23.332;2023-02-10T12:52:02;36.33;;;14.17;;
65831;SDS011;52593;42.648;23.332;2023-02-10T12:57:32;31.33;;;12.98;;
65831;SDS011;52593;42.648;23.332;2023-02-10T13:00:06;32.40;;;14.07;;
65831;SDS011;52593;42.648;23.332;2023-02-10T13:02:42;32.10;;;13.15;;
65831;SDS011;52593;42.648;23.332;2023-02-10T13:05:14;32.50;;;12.17;;
65831;SDS011;52593;42.648;23.332;2023-02-10T13:07:53;22.90;;;10.02;;
65831;SDS011;52593;42.648;23.332;2023-02-10T13:13:05;33.85;;;13.05;;
65831;SDS011;52593;42.648;23.332;2023-02-10T13:15:41;32.95;;;12.77;;
65831;SDS011;52593;42.648;23.332;2023-02-10T13:18:16;29.23;;;11.70;;
65831;SDS011;52593;42.648;23.332;2023-02-10T13:20:49;30.77;;;13.32;;
65831;SDS011;52593;42.648;23.332;2023-02-10T13:23:23;31.35;;;13.25;;
65831;SDS011;52593;42.648;23.332;2023-02-10T13:31:25;30.53;;;13.37;;
65831;SDS011;52593;42.648;23.332;2023-02-10T13:34:19;31.95;;;12.98;;
65831;SDS011;52593;42.648;23.332;2023-02-10T13:36:53;33.25;;;13.27;;
65831;SDS011;52593;42.648;23.332;2023-02-10T13:39:23;30.13;;;12.40;;
65831;SDS011;52593;42.648;23.332;2023-02-10T13:42:02;35.35;;;14.00;;
65831;SDS011;52593;42.648;23.332;2023-02-10T13:44:33;34.40;;;14.93;;
65831;SDS011;52593;42.648;23.332;2023-02-10T13:49:54;33.00;;;13.93;;
65831;SDS011;52593;42.648;23.332;2023-02-10T13:52:26;38.50;;;14.32;;
65831;SDS011;52593;42.648;23.332;2023-02-10T13:57:32;36.23;;;15.57;;
65831;SDS011;52593;42.648;23.332;2023-02-10T14:02:34;46.47;;;17.05;;
65831;SDS011;52593;42.648;23.332;2023-02-10T14:05:00;36.93;;;17.07;;
65831;SDS011;52593;42.648;23.332;2023-02-10T14:12:53;34.88;;;16.13;;
65831;SDS011;52593;42.648;23.332;2023-02-10T14:15:24;33.58;;;15.90;;
65831;SDS011;52593;42.648;23.332;2023-02-10T14:17:56;34.83;;;15.95;;
65831;SDS011;52593;42.648;23.332;2023-02-10T14:20:26;40.90;;;16.80;;
65831;SDS011;52593;42.648;23.332;2023-02-10T14:22:55;31.50;;;16.45;;
65831;SDS011;52593;42.648;23.332;2023-02-10T14:25:38;32.50;;;16.63;;
65831;SDS011;52593;42.648;23.332;2023-02-10T14:28:05;35.22;;;16.95;;
65831;SDS011;52593;42.648;23.332;2023-02-10T14:30:43;33.58;;;17.30;;
65831;SDS011;52593;42.648;23.332;2023-02-10T14:33:25;35.10;;;16.50;;
65831;SDS011;52593;42.648;23.332;2023-02-10T14:35:54;37.85;;;18.25;;
65831;SDS011;52593;42.648;23.332;2023-02-10T14:38:24;39.28;;;18.20;;
65831;SDS011;52593;42.648;23.332;2023-02-10T14:40:52;38.05;;;18.00;;
65831;SDS011;52593;42.648;23.332;2023-02-10T14:43:20;37.72;;;18.67;;
65831;SDS011;52593;42.648;23.332;2023-02-10T14:45:48;36.90;;;17.70;;
65831;SDS011;52593;42.648;23.332;2023-02-10T14:48:14;42.22;;;19.42;;
65831;SDS011;52593;42.648;23.332;2023-02-10T14:50:40;54.30;;;21.90;;
65831;SDS011;52593;42.648;23.332;2023-02-10T14:53:14;58.45;;;22.83;;
65831;SDS011;52593;42.648;23.332;2023-02-10T14:55:42;52.72;;;21.25;;
65831;SDS011;52593;42.648;23.332;2023-02-10T15:00:33;48.30;;;20.93;;
65831;SDS011;52593;42.648;23.332;2023-02-10T15:03:01;48.95;;;21.30;;
65831;SDS011;52593;42.648;23.332;2023-02-10T15:05:31;64.18;;;22.80;;
65831;SDS011;52593;42.648;23.332;2023-02-10T15:08:01;71.55;;;24.20;;
65831;SDS011;52593;42.648;23.332;2023-02-10T15:13:01;49.60;;;20.97;;
65831;SDS011;52593;42.648;23.332;2023-02-10T15:15:31;50.90;;;20.33;;
65831;SDS011;52593;42.648;23.332;2023-02-10T15:18:41;54.40;;;20.25;;
65831;SDS011;52593;42.648;23.332;2023-02-10T15:20:54;49.72;;;19.90;;
65831;SDS011;52593;42.648;23.332;2023-02-10T15:23:24;58.60;;;21.80;;
65831;SDS011;52593;42.648;23.332;2023-02-10T15:26:37;57.67;;;23.07;;
65831;SDS011;52593;42.648;23.332;2023-02-10T15:28:45;62.35;;;24.25;;
65831;SDS011;52593;42.648;23.332;2023-02-10T15:33:39;70.68;;;27.70;;
65831;SDS011;52593;42.648;23.332;2023-02-10T15:36:29;62.23;;;24.63;;
65831;SDS011;52593;42.648;23.332;2023-02-10T15:46:46;72.97;;;26.90;;
65831;SDS011;52593;42.648;23.332;2023-02-10T15:49:17;72.65;;;28.08;;
65831;SDS011;52593;42.648;23.332;2023-02-10T15:51:53;72.22;;;27.02;;
65831;SDS011;52593;42.648;23.332;2023-02-10T15:54:21;78.17;;;27.37;;
65831;SDS011;52593;42.648;23.332;2023-02-10T15:59:19;84.73;;;29.80;;
65831;SDS011;52593;42.648;23.332;2023-02-10T16:01:47;89.20;;;31.13;;
65831;SDS011;52593;42.648;23.332;2023-02-10T16:04:12;93.20;;;31.17;;
65831;SDS011;52593;42.648;23.332;2023-02-10T16:06:39;90.22;;;30.70;;
65831;SDS011;52593;42.648;23.332;2023-02-10T16:09:04;101.97;;;32.93;;
65831;SDS011;52593;42.648;23.332;2023-02-10T16:11:30;86.20;;;30.60;;
65831;SDS011;52593;42.648;23.332;2023-02-10T16:13:55;95.33;;;32.23;;
65831;SDS011;52593;42.648;23.332;2023-02-10T16:16:21;98.53;;;32.20;;
65831;SDS011;52593;42.648;23.332;2023-02-10T16:18:46;97.30;;;32.90;;
65831;SDS011;52593;42.648;23.332;2023-02-10T16:21:12;94.57;;;33.30;;
65831;SDS011;52593;42.648;23.332;2023-02-10T16:23:38;97.57;;;33.10;;
65831;SDS011;52593;42.648;23.332;2023-02-10T16:26:05;85.00;;;31.38;;
65831;SDS011;52593;42.648;23.332;2023-02-10T16:28:31;98.82;;;32.65;;
65831;SDS011;52593;42.648;23.332;2023-02-10T16:30:56;97.03;;;32.17;;
65831;SDS011;52593;42.648;23.332;2023-02-10T16:33:22;98.20;;;31.37;;
65831;SDS011;52593;42.648;23.332;2023-02-10T16:35:47;91.70;;;31.47;;
65831;SDS011;52593;42.648;23.332;2023-02-10T16:38:12;121.93;;;37.90;;
65831;SDS011;52593;42.648;23.332;2023-02-10T16:40:38;122.87;;;37.03;;
65831;SDS011;52593;42.648;23.332;2023-02-10T16:43:05;112.10;;;36.42;;
65831;SDS011;52593;42.648;23.332;2023-02-10T16:45:31;113.60;;;33.23;;
65831;SDS011;52593;42.648;23.332;2023-02-10T16:47:58;111.50;;;34.05;;